Details for Flybe at EGAC




Go Back


Latest METAR
Local Time

EGAC 211420Z AUTO 13008KT 9999 BKN045/// 08/04 Q1027

21/02/2018, 14:51:21

Description
Results
Flybe Logo
Number of Pilots based at EGAC
0 Pilots Based here
Number of Flybe Flights Departed from EGAC
7 Flights Departed
Number of Flybe Flights Arrived at EGAC
10 Flights Arrived
Number of Flybe Schedules Departing from EGAC
89 Schedules
Number of Flybe Schedules Arriving at EGAC
88 Schedules
Number of Flybe Schedules Departing from EGAC availible today
44 Schedules Today
Number of Flybe Schedules Arriving at EGAC availible today
44 Schedules Today
Average Landing Rate at EGAC
-292 fpm
Flybe Average Landing Rate at EGAC
-295 fpm
Total Fuel Purchased at EGAC by Flybe
4,872.94 kgs / 10,742.88 lbs

Pilots Based at EGAC


Pilot ID
Pilot Name
Pilot Rank
No. of Flights
No. of Flying Hours
There are no pilots assigned to this hub!   Will you be the first?
Content